Time;durP1;ratioP1;P1;durP2;ratioP2;P2;SDS_P1;SDS_P2;PMS_P1;PMS_P2;Temp;Humidity;BMP_temperature;BMP_pressure;BME280_temperature;BME280_humidity;BME280_pressure;Samples;Min_cycle;Max_cycle;Signal;HPM_P1;HPM_P2
2023/08/26 00:01:14;;;;;;;0.32;0.32;;;15.60;99.90;;;;;;5039433;28;20059;-72
2023/08/26 00:03:39;;;;;;;0.82;0.75;;;15.60;99.90;;;;;;5041632;28;20095;-71
2023/08/26 00:06:05;;;;;;;0.47;0.25;;;15.60;99.90;;;;;;5038045;28;20144;-72
2023/08/26 00:08:31;;;;;;;0.98;0.55;;;15.50;99.90;;;;;;5040387;28;20033;-73
2023/08/26 00:10:56;;;;;;;0.52;0.40;;;15.50;99.90;;;;;;5043156;28;20090;-72
2023/08/26 00:13:22;;;;;;;0.20;0.20;;;15.50;99.90;;;;;;5072393;28;20468;-72
2023/08/26 00:15:48;;;;;;;0.35;0.20;;;15.50;99.90;;;;;;5041621;28;20033;-72
2023/08/26 00:18:13;;;;;;;1.45;0.75;;;15.50;99.90;;;;;;5039758;28;20041;-72
2023/08/26 00:20:40;;;;;;;0.73;0.73;;;15.50;99.90;;;;;;5041229;28;20110;-72
2023/08/26 00:23:06;;;;;;;0.50;0.50;;;15.40;99.90;;;;;;5039190;28;20319;-71
2023/08/26 00:25:31;;;;;;;0.52;0.40;;;15.40;99.90;;;;;;5039834;28;20499;-71
2023/08/26 00:27:57;;;;;;;0.30;0.30;;;15.40;99.90;;;;;;5037100;28;20029;-71
2023/08/26 00:30:24;;;;;;;0.47;0.47;;;15.40;99.90;;;;;;5040763;28;20505;-71
2023/08/26 00:32:50;;;;;;;2.47;0.50;;;15.40;99.90;;;;;;5071386;28;20151;-71
2023/08/26 00:35:16;;;;;;;0.38;0.38;;;15.40;99.90;;;;;;5047336;28;20123;-72
2023/08/26 00:37:42;;;;;;;2.47;0.60;;;15.40;99.90;;;;;;5040921;28;20052;-71
2023/08/26 00:40:14;;;;;;;0.20;0.20;;;15.40;99.90;;;;;;5045411;28;20043;-73
2023/08/26 00:42:40;;;;;;;0.57;0.52;;;15.40;99.90;;;;;;5063284;28;20044;-70
2023/08/26 00:45:06;;;;;;;0.15;0.15;;;15.50;99.90;;;;;;5043529;28;20396;-71
2023/08/26 00:47:32;;;;;;;0.55;0.50;;;15.40;99.90;;;;;;5044653;28;20060;-71
2023/08/26 00:49:58;;;;;;;2.72;0.45;;;15.50;99.90;;;;;;5044065;28;20033;-71
2023/08/26 00:52:24;;;;;;;1.60;0.88;;;15.40;99.90;;;;;;5044634;28;20040;-72
2023/08/26 00:54:50;;;;;;;0.30;0.30;;;15.50;99.90;;;;;;5045929;28;20087;-73
2023/08/26 00:57:15;;;;;;;0.30;0.30;;;15.50;99.90;;;;;;5043910;28;20049;-72
2023/08/26 00:59:41;;;;;;;0.65;0.40;;;15.50;99.90;;;;;;5039176;28;20120;-72
2023/08/26 01:02:09;;;;;;;0.20;0.20;;;15.50;99.90;;;;;;5042269;28;20430;-72
2023/08/26 01:04:35;;;;;;;0.77;0.65;;;15.50;99.90;;;;;;5071468;28;20499;-72
2023/08/26 01:07:01;;;;;;;1.25;0.30;;;15.50;99.90;;;;;;5040115;28;20128;-72
2023/08/26 01:09:27;;;;;;;0.10;0.10;;;15.50;99.90;;;;;;5038010;28;20051;-72
2023/08/26 01:12:20;;;;;;;0.10;0.10;;;15.50;99.90;;;;;;5039687;28;20048;-72
2023/08/26 01:14:56;;;;;;;;;;;15.40;99.90;;;;;;5034593;28;20151;-72
2023/08/26 01:17:22;;;;;;;0.20;0.10;;;15.30;99.90;;;;;;5042990;28;20039;-72
2023/08/26 01:19:49;;;;;;;0.10;0.10;;;15.30;99.90;;;;;;5036777;28;20354;-72
2023/08/26 01:22:18;;;;;;;0.28;0.10;;;15.30;99.90;;;;;;5022751;28;20070;-72
2023/08/26 01:24:44;;;;;;;0.30;0.30;;;15.30;99.90;;;;;;5041725;28;20056;-71
2023/08/26 01:27:10;;;;;;;1.30;0.32;;;15.30;99.90;;;;;;5044923;28;20029;-72
2023/08/26 01:29:35;;;;;;;0.15;0.15;;;15.30;99.90;;;;;;5075062;28;20446;-73
2023/08/26 01:32:29;;;;;;;0.10;0.10;;;15.30;99.90;;;;;;5046941;28;20033;-72
2023/08/26 01:34:57;;;;;;;0.13;0.13;;;15.30;99.90;;;;;;5041689;28;20069;-72
2023/08/26 01:37:25;;;;;;;0.30;0.30;;;15.30;99.90;;;;;;5046154;28;20037;-72
2023/08/26 01:39:52;;;;;;;0.40;0.40;;;15.30;99.90;;;;;;5041462;28;20047;-72
2023/08/26 01:42:22;;;;;;;0.68;0.60;;;15.30;99.90;;;;;;5044678;28;20129;-71
2023/08/26 01:44:48;;;;;;;0.35;0.30;;;15.20;99.90;;;;;;5057149;28;20041;-72
2023/08/26 01:47:15;;;;;;;0.38;0.38;;;15.20;99.90;;;;;;5045836;28;20029;-72
2023/08/26 01:49:41;;;;;;;1.83;0.98;;;15.20;99.90;;;;;;5042935;28;20029;-73
2023/08/26 01:52:06;;;;;;;0.38;0.38;;;15.30;99.90;;;;;;5044265;28;20445;-74
2023/08/26 01:54:32;;;;;;;0.40;0.40;;;15.30;99.90;;;;;;5027139;28;20049;-75
2023/08/26 01:56:58;;;;;;;0.63;0.63;;;15.30;99.90;;;;;;5027847;28;20506;-74
2023/08/26 01:59:23;;;;;;;0.32;0.22;;;15.20;99.90;;;;;;5044492;28;20131;-75
2023/08/26 02:01:49;;;;;;;0.25;0.25;;;15.20;99.90;;;;;;5040544;28;20045;-74
2023/08/26 02:04:15;;;;;;;1.85;0.57;;;15.30;99.90;;;;;;5044258;28;20033;-75
2023/08/26 02:06:40;;;;;;;0.10;0.10;;;15.20;99.90;;;;;;5044281;28;20045;-77
2023/08/26 02:09:09;;;;;;;0.65;0.43;;;15.30;99.90;;;;;;5042743;28;20045;-76
2023/08/26 02:11:35;;;;;;;0.10;0.10;;;15.30;99.90;;;;;;5043593;28;20033;-76
2023/08/26 02:14:00;;;;;;;0.10;0.10;;;15.20;99.90;;;;;;5076655;28;20376;-76
2023/08/26 02:16:26;;;;;;;0.17;0.17;;;15.20;99.90;;;;;;5043483;28;20283;-75
2023/08/26 02:18:52;;;;;;;0.20;0.20;;;15.20;99.90;;;;;;5044256;28;20137;-74
2023/08/26 02:21:18;;;;;;;0.25;0.25;;;15.20;99.90;;;;;;5039100;28;20602;-73
2023/08/26 02:23:43;;;;;;;0.57;0.50;;;15.10;99.90;;;;;;5076836;28;20409;-72
2023/08/26 02:26:09;;;;;;;0.22;0.22;;;15.10;99.90;;;;;;5045717;28;20812;-72
2023/08/26 02:28:34;;;;;;;0.10;0.10;;;15.00;99.90;;;;;;5041660;28;20036;-73
2023/08/26 02:31:03;;;;;;;1.70;0.82;;;15.00;99.90;;;;;;5042255;28;20029;-73
2023/08/26 02:33:29;;;;;;;0.13;0.13;;;15.00;99.90;;;;;;5037864;28;20033;-73
2023/08/26 02:35:55;;;;;;;0.52;0.13;;;15.00;99.90;;;;;;5044497;28;20041;-71
2023/08/26 02:38:21;;;;;;;0.57;0.45;;;14.90;99.90;;;;;;5040715;28;20048;-71
2023/08/26 02:40:54;;;;;;;0.52;0.52;;;14.90;99.90;;;;;;5075175;28;20052;-71
2023/08/26 02:43:22;;;;;;;0.85;0.85;;;14.90;99.90;;;;;;5045263;28;20040;-71
2023/08/26 02:45:56;;;;;;;0.35;0.35;;;14.80;99.90;;;;;;5045721;28;20455;-71
2023/08/26 02:48:22;;;;;;;0.50;0.50;;;14.80;99.90;;;;;;5044325;28;20510;-72
2023/08/26 02:50:57;;;;;;;0.43;0.40;;;14.70;99.90;;;;;;5045947;28;20083;-72
2023/08/26 02:53:27;;;;;;;0.45;0.35;;;14.70;99.90;;;;;;5038680;28;20044;-72
2023/08/26 02:55:54;;;;;;;0.73;0.22;;;14.60;99.90;;;;;;5042808;28;20787;-72
2023/08/26 02:58:20;;;;;;;0.30;0.30;;;14.70;99.90;;;;;;5042113;28;20048;-72
2023/08/26 03:00:46;;;;;;;0.30;0.30;;;14.60;99.90;;;;;;5075044;28;20045;-72
2023/08/26 03:03:13;;;;;;;0.10;0.10;;;14.70;99.90;;;;;;5043482;28;20080;-72
2023/08/26 03:05:38;;;;;;;0.25;0.25;;;14.60;99.90;;;;;;5040252;28;20691;-72
2023/08/26 03:08:04;;;;;;;0.30;0.30;;;14.60;99.90;;;;;;5040144;28;20489;-72
2023/08/26 03:10:31;;;;;;;0.47;0.47;;;14.60;99.90;;;;;;5039810;28;20033;-72
2023/08/26 03:12:57;;;;;;;0.45;0.30;;;14.60;99.90;;;;;;5073805;28;20033;-72
2023/08/26 03:15:25;;;;;;;1.65;0.32;;;14.60;99.90;;;;;;5040180;28;20446;-72
2023/08/26 03:17:51;;;;;;;0.68;0.63;;;14.60;99.90;;;;;;5044136;28;20045;-72
2023/08/26 03:20:17;;;;;;;1.45;0.95;;;14.60;99.90;;;;;;5037034;28;20038;-72
2023/08/26 03:22:42;;;;;;;1.02;0.60;;;14.70;99.90;;;;;;5036062;28;20130;-72
2023/08/26 03:25:08;;;;;;;0.90;0.55;;;14.70;99.90;;;;;;5038215;28;20499;-72
2023/08/26 03:27:34;;;;;;;0.80;0.63;;;14.70;99.90;;;;;;5037561;28;20045;-72
2023/08/26 03:29:59;;;;;;;0.63;0.50;;;14.70;99.90;;;;;;5038301;28;20301;-71
2023/08/26 03:32:26;;;;;;;0.22;0.22;;;14.70;99.90;;;;;;5034778;28;20166;-72
2023/08/26 03:34:51;;;;;;;0.60;0.60;;;14.70;99.90;;;;;;5035765;28;20661;-73
2023/08/26 03:37:17;;;;;;;1.30;0.45;;;14.70;99.90;;;;;;5040293;28;20116;-72
2023/08/26 03:39:42;;;;;;;0.45;0.45;;;14.80;99.90;;;;;;5036146;28;20444;-73
2023/08/26 03:42:08;;;;;;;1.67;0.57;;;14.80;99.90;;;;;;5071422;28;20036;-73
2023/08/26 03:44:34;;;;;;;0.30;0.30;;;14.80;99.90;;;;;;5042471;28;20087;-73
2023/08/26 03:46:59;;;;;;;0.20;0.20;;;14.80;99.90;;;;;;5041889;28;20040;-73
2023/08/26 03:49:25;;;;;;;2.10;0.68;;;14.70;99.90;;;;;;5035115;28;20133;-72
2023/08/26 03:51:51;;;;;;;0.32;0.20;;;14.70;99.90;;;;;;5039736;28;20468;-72
2023/08/26 03:54:17;;;;;;;0.20;0.20;;;14.80;99.90;;;;;;5038611;28;20037;-72
2023/08/26 03:56:43;;;;;;;0.90;0.90;;;14.80;99.90;;;;;;5024377;28;20055;-72
2023/08/26 03:59:08;;;;;;;0.20;0.20;;;14.80;99.90;;;;;;5041219;28;20036;-73
2023/08/26 04:01:35;;;;;;;0.38;0.20;;;14.70;99.90;;;;;;5039614;28;20037;-72
2023/08/26 04:04:01;;;;;;;1.63;0.77;;;14.70;99.90;;;;;;5031623;28;20060;-72
2023/08/26 04:06:27;;;;;;;0.65;0.30;;;14.70;99.90;;;;;;5029005;28;20215;-72
2023/08/26 04:08:53;;;;;;;0.35;0.35;;;14.60;99.90;;;;;;5036486;28;20072;-72
2023/08/26 04:11:19;;;;;;;0.63;0.50;;;14.60;99.90;;;;;;5034659;28;20049;-72
2023/08/26 04:13:47;;;;;;;0.73;0.73;;;14.60;99.90;;;;;;5036831;28;20114;-72
2023/08/26 04:16:15;;;;;;;0.35;0.30;;;14.60;99.90;;;;;;5035781;28;20626;-72
2023/08/26 04:18:42;;;;;;;0.75;0.60;;;14.60;99.90;;;;;;5035023;28;20183;-72
2023/08/26 04:21:09;;;;;;;0.52;0.52;;;14.60;99.90;;;;;;5036655;28;20041;-72
2023/08/26 04:23:34;;;;;;;1.80;0.47;;;14.60;99.90;;;;;;5034923;28;20601;-72
2023/08/26 04:26:00;;;;;;;0.55;0.20;;;14.60;99.90;;;;;;5038262;28;20041;-72
2023/08/26 04:28:26;;;;;;;0.47;0.40;;;14.70;99.90;;;;;;5033811;28;20038;-72
2023/08/26 04:30:52;;;;;;;0.10;0.10;;;14.60;99.90;;;;;;5075001;28;20037;-71
2023/08/26 04:33:19;;;;;;;2.15;1.13;;;14.60;99.90;;;;;;5038429;28;20123;-72
2023/08/26 04:35:44;;;;;;;2.72;0.70;;;14.60;99.90;;;;;;5075544;28;20046;-71
2023/08/26 04:38:10;;;;;;;0.47;0.47;;;14.60;99.90;;;;;;5040640;28;20036;-71
2023/08/26 04:40:35;;;;;;;0.50;0.50;;;14.60;99.90;;;;;;5042486;28;20040;-71
2023/08/26 04:43:01;;;;;;;0.45;0.35;;;14.70;99.90;;;;;;5039211;28;20048;-72
2023/08/26 04:45:26;;;;;;;0.20;0.20;;;14.70;99.90;;;;;;5044028;28;20510;-72
2023/08/26 04:47:52;;;;;;;1.35;0.38;;;14.70;99.90;;;;;;5039764;28;20029;-72
2023/08/26 04:50:18;;;;;;;2.22;0.85;;;14.70;99.90;;;;;;5045339;28;20490;-72
2023/08/26 04:52:43;;;;;;;0.10;0.10;;;14.80;99.90;;;;;;5039013;28;20041;-71
2023/08/26 04:55:10;;;;;;;2.05;1.23;;;14.80;99.90;;;;;;5045141;28;21337;-71
2023/08/26 04:57:36;;;;;;;1.88;0.63;;;14.80;99.90;;;;;;5040788;28;20128;-72
2023/08/26 05:00:06;;;;;;;0.52;0.40;;;14.70;99.90;;;;;;5045218;28;20533;-72
2023/08/26 05:02:31;;;;;;;1.13;0.30;;;14.80;99.90;;;;;;5041439;28;20033;-72
2023/08/26 05:04:58;;;;;;;0.55;0.55;;;14.80;99.90;;;;;;5042203;28;20051;-72
2023/08/26 05:07:23;;;;;;;0.32;0.32;;;14.80;99.90;;;;;;5042502;28;20377;-72
2023/08/26 05:09:49;;;;;;;0.65;0.63;;;14.90;99.90;;;;;;5043953;28;20456;-72
2023/08/26 05:12:15;;;;;;;0.73;0.70;;;14.90;99.90;;;;;;5046320;28;20033;-72
2023/08/26 05:14:41;;;;;;;1.35;0.93;;;14.90;99.90;;;;;;5042918;28;20086;-73
2023/08/26 05:17:07;;;;;;;0.40;0.40;;;14.90;99.90;;;;;;5042116;28;20441;-73
2023/08/26 05:19:32;;;;;;;0.47;0.20;;;14.90;99.90;;;;;;5041645;28;20029;-73
2023/08/26 05:21:58;;;;;;;0.35;0.35;;;15.00;99.90;;;;;;5042644;28;20040;-72
2023/08/26 05:24:23;;;;;;;0.57;0.57;;;15.00;99.90;;;;;;5042257;28;20098;-72
2023/08/26 05:26:49;;;;;;;0.68;0.68;;;15.00;99.90;;;;;;5044192;28;20033;-73
2023/08/26 05:29:14;;;;;;;0.93;0.10;;;15.00;99.90;;;;;;5038900;28;20034;-72
2023/08/26 05:31:40;;;;;;;5.38;1.08;;;15.00;99.90;;;;;;5045110;28;20464;-72
2023/08/26 05:34:05;;;;;;;1.05;0.95;;;15.10;99.90;;;;;;5075338;28;20033;-72
2023/08/26 05:36:31;;;;;;;1.63;0.98;;;15.10;99.90;;;;;;5043611;28;20051;-73
2023/08/26 05:38:57;;;;;;;0.40;0.40;;;15.10;99.90;;;;;;5045892;28;20391;-72
2023/08/26 05:41:22;;;;;;;0.45;0.45;;;15.10;99.90;;;;;;5040886;28;20068;-72
2023/08/26 05:43:49;;;;;;;1.38;0.45;;;15.10;99.90;;;;;;5045974;28;20530;-72
2023/08/26 05:46:15;;;;;;;0.75;0.75;;;15.20;99.90;;;;;;5026020;28;20041;-72
2023/08/26 05:48:40;;;;;;;1.38;0.85;;;15.20;99.90;;;;;;5031204;28;20036;-72
2023/08/26 05:51:06;;;;;;;1.25;0.40;;;15.20;99.90;;;;;;5039570;28;20033;-72
2023/08/26 05:53:32;;;;;;;0.60;0.60;;;15.30;99.90;;;;;;5041860;28;20041;-72
2023/08/26 05:55:58;;;;;;;0.82;0.77;;;15.30;99.90;;;;;;5040774;28;20056;-73
2023/08/26 05:58:24;;;;;;;0.63;0.40;;;15.30;99.90;;;;;;5048946;28;20411;-72
2023/08/26 06:00:50;;;;;;;0.80;0.77;;;15.30;99.90;;;;;;5040489;28;20037;-72
2023/08/26 06:03:15;;;;;;;1.92;1.42;;;15.40;99.90;;;;;;5046392;28;20067;-72
2023/08/26 06:05:41;;;;;;;1.05;0.85;;;15.40;99.90;;;;;;5044392;28;20045;-74
2023/08/26 06:08:07;;;;;;;1.45;0.73;;;15.40;99.90;;;;;;5049611;28;20499;-71
2023/08/26 06:10:34;;;;;;;9.95;1.00;;;15.50;99.90;;;;;;5044921;28;20043;-73
2023/08/26 06:12:59;;;;;;;1.75;1.65;;;15.50;99.90;;;;;;5045418;28;20037;-76
2023/08/26 06:15:25;;;;;;;1.42;0.85;;;15.40;99.90;;;;;;5042556;28;20041;-70
2023/08/26 06:17:50;;;;;;;2.10;0.93;;;15.50;99.90;;;;;;5076630;28;20472;-70
2023/08/26 06:20:16;;;;;;;3.00;1.05;;;15.40;99.90;;;;;;5047084;28;20040;-73
2023/08/26 06:22:42;;;;;;;1.27;1.17;;;15.40;99.90;;;;;;5075357;28;20041;-71
2023/08/26 06:25:09;;;;;;;2.92;1.17;;;15.30;99.90;;;;;;5045334;28;20051;-72
2023/08/26 06:27:34;;;;;;;2.85;1.60;;;15.30;99.90;;;;;;5045650;28;20045;-74
2023/08/26 06:30:03;;;;;;;1.98;1.17;;;15.20;99.90;;;;;;5043903;28;20040;-72
2023/08/26 06:32:29;;;;;;;2.08;1.85;;;15.20;99.90;;;;;;5048068;28;20033;-75
2023/08/26 06:34:55;;;;;;;0.82;0.82;;;15.20;99.90;;;;;;5048651;28;20052;-71
2023/08/26 06:37:21;;;;;;;3.67;0.98;;;15.20;99.90;;;;;;5047636;28;20041;-71
2023/08/26 06:39:47;;;;;;;1.70;1.23;;;15.20;99.90;;;;;;5048389;28;20302;-71
2023/08/26 06:42:14;;;;;;;0.47;0.47;;;15.20;99.90;;;;;;5045024;28;20040;-72
2023/08/26 06:44:43;;;;;;;0.70;0.60;;;15.30;99.90;;;;;;5080932;28;20044;-71
2023/08/26 06:47:09;;;;;;;1.67;1.20;;;15.30;99.90;;;;;;5047493;28;20029;-71
2023/08/26 06:49:35;;;;;;;1.05;0.93;;;15.40;99.90;;;;;;5050675;28;20546;-72
2023/08/26 06:52:01;;;;;;;1.15;1.05;;;15.40;99.90;;;;;;5044896;28;20044;-71
2023/08/26 06:54:27;;;;;;;2.42;1.48;;;15.40;99.90;;;;;;5081339;28;20044;-71
2023/08/26 06:56:53;;;;;;;2.42;1.00;;;15.30;99.90;;;;;;5047335;28;20037;-71
2023/08/26 06:59:19;;;;;;;2.67;1.17;;;15.40;99.90;;;;;;5044496;28;20045;-69
2023/08/26 07:02:07;;;;;;;1.65;0.85;;;15.40;99.90;;;;;;5043039;28;20047;-72
2023/08/26 07:04:33;;;;;;;1.83;1.10;;;15.50;99.90;;;;;;5049290;28;20040;-74
2023/08/26 07:07:00;;;;;;;0.85;0.77;;;15.50;99.90;;;;;;5042099;28;20543;-71
2023/08/26 07:09:38;;;;;;;4.55;0.85;;;15.60;99.90;;;;;;5045331;28;20407;-72
2023/08/26 07:12:04;;;;;;;2.60;1.67;;;15.60;99.90;;;;;;5043660;28;20037;-74
2023/08/26 07:14:29;;;;;;;1.05;1.05;;;15.70;99.90;;;;;;5042322;28;20037;-72
2023/08/26 07:16:55;;;;;;;2.17;1.08;;;15.70;99.90;;;;;;5042382;28;20033;-73
2023/08/26 07:19:21;;;;;;;0.70;0.55;;;15.70;99.90;;;;;;5043396;28;20123;-70
2023/08/26 07:21:46;;;;;;;4.22;1.88;;;15.70;99.90;;;;;;5044912;28;20475;-74
2023/08/26 07:24:13;;;;;;;3.17;1.33;;;15.70;99.90;;;;;;5044089;28;20025;-73
2023/08/26 07:26:40;;;;;;;0.40;0.40;;;15.80;99.90;;;;;;5044651;28;20502;-72
2023/08/26 07:29:06;;;;;;;2.05;1.88;;;15.90;99.90;;;;;;5045127;28;20396;-73
2023/08/26 07:31:32;;;;;;;1.27;1.23;;;16.10;99.90;;;;;;5048089;28;20036;-74
2023/08/26 07:33:58;;;;;;;3.58;1.13;;;16.20;99.90;;;;;;5043432;28;20048;-75
2023/08/26 07:36:24;;;;;;;1.60;1.15;;;16.20;99.90;;;;;;5042061;28;20048;-76
2023/08/26 07:38:49;;;;;;;1.42;1.33;;;16.20;99.90;;;;;;5041487;28;20487;-71
2023/08/26 07:41:15;;;;;;;0.82;0.60;;;16.40;99.90;;;;;;5043134;28;20036;-71
2023/08/26 07:43:40;;;;;;;1.40;1.00;;;16.50;99.90;;;;;;5076511;28;20123;-73
2023/08/26 07:46:06;;;;;;;2.65;1.02;;;16.50;99.90;;;;;;5041758;28;20075;-69
2023/08/26 07:48:32;;;;;;;4.82;1.48;;;16.50;99.90;;;;;;5043929;28;20119;-71
2023/08/26 07:50:57;;;;;;;0.98;0.88;;;16.60;99.90;;;;;;5043399;28;20036;-70
2023/08/26 07:53:23;;;;;;;4.10;1.08;;;16.40;99.90;;;;;;5061425;28;20123;-69
2023/08/26 07:55:48;;;;;;;0.77;0.73;;;16.50;99.90;;;;;;5042828;28;20041;-71
2023/08/26 07:58:14;;;;;;;1.02;0.93;;;16.30;99.90;;;;;;5041408;28;20449;-69
2023/08/26 08:00:40;;;;;;;1.83;0.75;;;16.50;99.90;;;;;;5044177;28;20044;-71
2023/08/26 08:03:05;;;;;;;4.45;1.77;;;16.50;99.90;;;;;;5040605;28;20511;-71
2023/08/26 08:05:31;;;;;;;1.08;0.77;;;16.50;99.90;;;;;;5072997;28;20120;-71
2023/08/26 08:07:56;;;;;;;1.48;1.38;;;16.50;99.90;;;;;;5039281;28;20040;-69
2023/08/26 08:10:22;;;;;;;0.82;0.82;;;16.40;99.90;;;;;;5040241;28;20577;-71
2023/08/26 08:12:47;;;;;;;1.63;1.52;;;16.50;99.90;;;;;;5056334;28;20047;-70
2023/08/26 08:15:13;;;;;;;0.50;0.50;;;16.60;99.90;;;;;;5048465;28;20522;-71
2023/08/26 08:17:39;;;;;;;1.15;1.10;;;16.80;99.90;;;;;;5039587;28;20063;-71
2023/08/26 08:20:05;;;;;;;0.80;0.80;;;17.00;99.90;;;;;;5047176;28;20119;-71
2023/08/26 08:22:39;;;;;;;1.30;1.20;;;17.00;99.90;;;;;;5045690;28;20454;-74
2023/08/26 08:25:06;;;;;;;1.63;1.00;;;17.00;99.90;;;;;;5076845;28;20480;-72
2023/08/26 08:27:31;;;;;;;1.75;0.82;;;17.00;99.90;;;;;;5027522;28;20086;-73
2023/08/26 08:29:58;;;;;;;1.77;0.95;;;17.00;99.90;;;;;;5044961;28;20037;-72
2023/08/26 08:32:26;;;;;;;2.15;1.08;;;17.00;99.90;;;;;;5042682;28;20037;-72
2023/08/26 08:34:52;;;;;;;1.50;0.40;;;17.10;99.90;;;;;;5042417;28;20048;-73
2023/08/26 08:37:18;;;;;;;0.93;0.93;;;17.30;99.90;;;;;;5061767;28;20061;-73
2023/08/26 08:39:44;;;;;;;2.53;0.52;;;17.50;99.90;;;;;;5047643;28;20557;-72
2023/08/26 08:42:10;;;;;;;0.75;0.52;;;17.70;99.90;;;;;;5047988;28;20112;-72
2023/08/26 08:44:49;;;;;;;1.58;1.13;;;17.90;99.90;;;;;;5083591;28;20043;-70
2023/08/26 08:47:15;;;;;;;1.48;0.68;;;18.10;99.90;;;;;;5082618;28;20120;-70
2023/08/26 08:49:43;;;;;;;0.47;0.47;;;18.30;99.90;;;;;;5050000;28;20048;-70
2023/08/26 08:52:10;;;;;;;0.43;0.43;;;18.40;99.90;;;;;;5051080;28;20285;-74
2023/08/26 08:54:36;;;;;;;0.85;0.50;;;18.50;99.90;;;;;;5052994;28;20037;-73
2023/08/26 08:57:03;;;;;;;1.55;0.90;;;18.40;99.90;;;;;;5050384;28;20044;-72
2023/08/26 08:59:32;;;;;;;1.75;0.65;;;18.40;99.90;;;;;;5047537;28;20033;-71
2023/08/26 09:01:58;;;;;;;1.35;1.20;;;18.50;99.90;;;;;;5050968;28;20094;-71
2023/08/26 09:04:25;;;;;;;1.73;1.42;;;18.70;99.90;;;;;;5044901;28;20069;-71
2023/08/26 09:07:03;;;;;;;0.63;0.63;;;18.70;99.90;;;;;;5052422;28;20041;-74
2023/08/26 09:09:29;;;;;;;1.83;0.77;;;18.80;99.90;;;;;;5045835;28;20499;-71
2023/08/26 09:11:55;;;;;;;0.45;0.40;;;18.60;99.90;;;;;;5047244;28;20053;-73
2023/08/26 09:14:21;;;;;;;0.80;0.80;;;18.60;99.90;;;;;;5044680;28;20599;-72
2023/08/26 09:16:46;;;;;;;0.38;0.30;;;18.60;99.90;;;;;;5035617;28;20037;-73
2023/08/26 09:19:13;;;;;;;3.20;0.47;;;18.60;99.90;;;;;;5049887;28;20045;-72
2023/08/26 09:21:43;;;;;;;0.45;0.45;;;18.60;99.90;;;;;;5045131;28;20045;-71
2023/08/26 09:24:13;;;;;;;0.25;0.22;;;18.50;99.90;;;;;;5050724;28;20064;-71
2023/08/26 09:26:39;;;;;;;0.32;0.32;;;18.60;99.90;;;;;;5049958;28;20069;-72
2023/08/26 09:29:18;;;;;;;1.85;1.75;;;18.50;99.90;;;;;;5035069;28;20041;-70
2023/08/26 09:31:50;;;;;;;0.13;0.13;;;18.50;99.90;;;;;;5052174;28;20037;-71
2023/08/26 09:34:28;;;;;;;1.55;0.43;;;18.60;99.90;;;;;;5052970;28;20144;-71
2023/08/26 09:36:55;;;;;;;0.55;0.55;;;18.60;99.90;;;;;;5051443;28;20041;-70
2023/08/26 09:39:23;;;;;;;0.40;0.40;;;18.70;99.90;;;;;;5051343;28;20036;-69
2023/08/26 09:41:49;;;;;;;1.27;0.85;;;18.70;99.90;;;;;;5052882;28;20048;-72
2023/08/26 09:44:17;;;;;;;0.55;0.55;;;18.80;99.90;;;;;;5047596;28;20392;-71
2023/08/26 09:46:43;;;;;;;0.68;0.68;;;18.90;99.90;;;;;;5046641;28;20523;-75
2023/08/26 09:49:17;;;;;;;0.25;0.20;;;19.00;99.90;;;;;;5044367;28;20786;-71
2023/08/26 09:51:47;;;;;;;0.55;0.40;;;19.10;99.90;;;;;;5049679;28;20045;-73
2023/08/26 09:54:18;;;;;;;0.30;0.30;;;19.20;99.90;;;;;;5049950;28;20090;-70
2023/08/26 09:56:50;;;;;;;0.20;0.20;;;19.30;99.90;;;;;;5048057;28;20438;-69
2023/08/26 09:59:16;;;;;;;0.43;0.38;;;19.30;99.90;;;;;;5076669;28;20064;-72
2023/08/26 10:01:42;;;;;;;0.93;0.50;;;19.30;99.90;;;;;;5045079;28;20526;-72
2023/08/26 10:04:09;;;;;;;0.40;0.40;;;19.10;99.90;;;;;;5039923;28;20120;-71
2023/08/26 10:07:00;;;;;;;0.90;0.57;;;19.10;99.90;;;;;;5048254;28;20094;-69
2023/08/26 10:09:51;;;;;;;0.45;0.45;;;19.20;99.90;;;;;;5080075;28;20044;-72
2023/08/26 10:12:28;;;;;;;0.70;0.70;;;19.50;99.90;;;;;;5043915;28;20037;-68
2023/08/26 10:14:56;;;;;;;1.02;0.68;;;19.60;99.90;;;;;;5043584;28;20033;-71
2023/08/26 10:17:23;;;;;;;0.88;0.38;;;19.70;99.90;;;;;;5049167;28;20433;-72
2023/08/26 10:19:51;;;;;;;0.20;0.20;;;19.90;99.90;;;;;;5048339;28;20037;-70
2023/08/26 10:22:16;;;;;;;0.55;0.35;;;19.90;99.90;;;;;;5049898;28;20036;-69
2023/08/26 10:24:44;;;;;;;0.30;0.30;;;19.80;99.90;;;;;;5049131;28;20505;-69
2023/08/26 10:27:18;;;;;;;0.80;0.80;;;19.80;99.90;;;;;;5051858;28;20036;-69
2023/08/26 10:29:45;;;;;;;0.20;0.20;;;19.90;99.90;;;;;;5052022;28;20055;-68
2023/08/26 10:32:17;;;;;;;0.80;0.63;;;19.70;99.90;;;;;;5042735;28;20029;-70
2023/08/26 10:34:53;;;;;;;0.70;0.20;;;19.50;99.90;;;;;;5060450;28;20464;-71
2023/08/26 10:37:25;;;;;;;0.57;0.57;;;19.50;99.90;;;;;;5045559;28;20041;-71
2023/08/26 10:39:51;;;;;;;;;;;19.40;99.90;;;;;;5048007;28;20471;-72
2023/08/26 10:42:18;;;;;;;0.47;0.32;;;19.40;99.90;;;;;;5060149;28;19924;-70
2023/08/26 10:44:57;;;;;;;0.38;0.38;;;19.60;99.90;;;;;;5075207;28;20120;-70
2023/08/26 10:47:39;;;;;;;0.30;0.30;;;19.60;99.90;;;;;;5077328;28;20033;-70
2023/08/26 10:50:26;;;;;;;0.50;0.50;;;19.40;99.90;;;;;;5081795;28;20041;-69
2023/08/26 10:52:58;;;;;;;1.55;0.73;;;19.20;99.90;;;;;;5043747;28;20041;-68
2023/08/26 10:55:23;;;;;;;;;;;19.20;99.90;;;;;;5043417;28;20067;-70
2023/08/26 10:58:15;;;;;;;0.22;0.15;;;19.20;99.90;;;;;;5047641;28;19917;-68
2023/08/26 11:00:46;;;;;;;0.47;0.30;;;19.20;99.90;;;;;;5051752;28;20051;-70
2023/08/26 11:03:13;;;;;;;0.25;0.25;;;19.50;99.90;;;;;;5043763;28;20057;-68
2023/08/26 11:05:43;;;;;;;0.20;0.20;;;19.70;99.90;;;;;;5045247;28;20048;-72
2023/08/26 11:08:08;;;;;;;0.35;0.20;;;19.90;99.90;;;;;;5041924;28;20033;-68
2023/08/26 11:10:41;;;;;;;0.40;0.40;;;20.00;99.90;;;;;;5080321;28;20040;-68
2023/08/26 11:13:08;;;;;;;0.25;0.25;;;20.00;99.90;;;;;;5037137;28;20044;-70
2023/08/26 11:15:41;;;;;;;0.98;0.40;;;19.90;99.90;;;;;;5036532;28;20075;-72
2023/08/26 11:18:08;;;;;;;0.30;0.30;;;19.90;99.90;;;;;;5073865;28;20126;-69
2023/08/26 11:20:35;;;;;;;0.10;0.10;;;19.90;99.90;;;;;;5061763;28;20045;-68
2023/08/26 11:23:05;;;;;;;1.10;0.40;;;19.80;99.90;;;;;;5039462;28;20047;-67
2023/08/26 11:25:33;;;;;;;0.38;0.38;;;19.60;99.90;;;;;;5040384;28;20048;-69
2023/08/26 11:28:07;;;;;;;0.15;0.15;;;19.50;99.90;;;;;;5038606;28;20043;-68
2023/08/26 11:30:45;;;;;;;0.20;0.20;;;19.50;99.90;;;;;;5040334;28;20037;-69
2023/08/26 11:33:17;;;;;;;1.45;0.90;;;19.50;99.90;;;;;;5058475;28;20044;-69
2023/08/26 11:35:45;;;;;;;0.52;0.52;;;19.60;99.90;;;;;;5044265;28;20515;-72
2023/08/26 11:38:12;;;;;;;0.35;0.20;;;19.80;99.90;;;;;;5045992;28;20033;-69
2023/08/26 11:40:40;;;;;;;0.80;0.80;;;19.80;99.90;;;;;;5044839;28;20068;-71
2023/08/26 11:43:10;;;;;;;1.33;0.80;;;19.80;99.90;;;;;;5045117;28;20435;-69
2023/08/26 11:45:42;;;;;;;0.40;0.40;;;19.80;99.90;;;;;;5045816;28;20037;-70
2023/08/26 11:48:10;;;;;;;0.77;0.77;;;20.10;99.90;;;;;;5037105;28;20480;-66
2023/08/26 11:50:37;;;;;;;9.10;0.77;;;20.40;99.90;;;;;;5049611;28;20041;-69
2023/08/26 11:53:03;;;;;;;0.28;0.28;;;20.50;99.90;;;;;;5047442;28;20051;-72
2023/08/26 11:55:30;;;;;;;1.00;0.55;;;20.60;99.90;;;;;;5047896;28;20070;-71
2023/08/26 11:57:57;;;;;;;0.28;0.28;;;20.70;99.90;;;;;;5048984;28;20430;-77
2023/08/26 12:00:23;;;;;;;1.65;0.50;;;20.50;99.90;;;;;;5039572;28;20513;-76
2023/08/26 12:02:55;;;;;;;0.32;0.32;;;20.40;99.90;;;;;;5042698;28;20045;-77
2023/08/26 12:05:21;;;;;;;0.25;0.25;;;20.40;99.90;;;;;;5070460;28;20033;-79
2023/08/26 12:07:51;;;;;;;0.20;0.20;;;20.40;99.90;;;;;;5038646;28;20425;-76
2023/08/26 12:10:18;;;;;;;0.20;0.20;;;20.30;99.90;;;;;;5032618;28;20051;-77
2023/08/26 12:12:47;;;;;;;0.85;0.65;;;19.90;99.90;;;;;;5069420;28;20040;-76
2023/08/26 12:15:19;;;;;;;1.13;0.68;;;19.80;99.90;;;;;;5042529;28;20167;-80
2023/08/26 12:17:50;;;;;;;0.85;0.70;;;20.00;99.90;;;;;;5039047;28;20136;-78
2023/08/26 12:20:24;;;;;;;0.40;0.40;;;20.10;99.90;;;;;;5046562;28;20044;-80
2023/08/26 12:22:51;;;;;;;0.30;0.30;;;20.20;99.90;;;;;;5040513;28;20041;-76
2023/08/26 12:25:38;;;;;;;0.70;0.45;;;20.20;99.90;;;;;;5043782;28;20041;-81
2023/08/26 12:28:04;;;;;;;0.68;0.20;;;20.30;99.90;;;;;;5040795;28;20087;-76
2023/08/26 12:30:30;;;;;;;0.40;0.40;;;20.40;99.90;;;;;;5055305;28;20034;-70
2023/08/26 12:32:56;;;;;;;0.50;0.50;;;20.50;99.90;;;;;;5040722;28;20044;-69
2023/08/26 12:35:22;;;;;;;0.22;0.22;;;20.40;99.90;;;;;;5072516;28;20041;-67
2023/08/26 12:37:48;;;;;;;0.70;0.70;;;20.40;99.90;;;;;;5045398;28;20369;-68
2023/08/26 12:40:14;;;;;;;0.80;0.30;;;20.60;99.90;;;;;;5040616;28;20040;-68
2023/08/26 12:42:40;;;;;;;0.20;0.20;;;20.70;99.90;;;;;;5048407;28;20052;-70
2023/08/26 12:45:06;;;;;;;0.20;0.20;;;20.70;99.90;;;;;;5032363;28;20092;-67
2023/08/26 12:47:32;;;;;;;0.35;0.35;;;20.50;99.90;;;;;;5048244;28;20376;-67
2023/08/26 12:49:58;;;;;;;0.63;0.30;;;20.30;99.90;;;;;;5062996;28;20044;-69